sensor_id;sensor_type;location;lat;lon;timestamp;P1;durP1;ratioP1;P2;durP2;ratioP2
12585;SDS011;6358;50.760;0.282;2022-10-16T00:00:18;1.30;;;0.95;;
12585;SDS011;6358;50.760;0.282;2022-10-16T00:02:44;2.97;;;1.30;;
12585;SDS011;6358;50.760;0.282;2022-10-16T00:05:11;3.50;;;1.37;;
12585;SDS011;6358;50.760;0.282;2022-10-16T00:07:37;2.75;;;1.25;;
12585;SDS011;6358;50.760;0.282;2022-10-16T00:10:03;3.30;;;1.00;;
12585;SDS011;6358;50.760;0.282;2022-10-16T00:12:29;3.40;;;1.60;;
12585;SDS011;6358;50.760;0.282;2022-10-16T00:14:55;2.17;;;1.23;;
12585;SDS011;6358;50.760;0.282;2022-10-16T00:17:21;4.37;;;1.40;;
12585;SDS011;6358;50.760;0.282;2022-10-16T00:19:47;2.63;;;1.60;;
12585;SDS011;6358;50.760;0.282;2022-10-16T00:22:13;2.92;;;1.48;;
12585;SDS011;6358;50.760;0.282;2022-10-16T00:24:39;1.83;;;1.10;;
12585;SDS011;6358;50.760;0.282;2022-10-16T00:27:05;3.50;;;1.50;;
12585;SDS011;6358;50.760;0.282;2022-10-16T00:29:31;1.88;;;1.13;;
12585;SDS011;6358;50.760;0.282;2022-10-16T00:31:57;1.80;;;1.13;;
12585;SDS011;6358;50.760;0.282;2022-10-16T00:34:24;2.87;;;1.33;;
12585;SDS011;6358;50.760;0.282;2022-10-16T00:36:50;3.72;;;1.45;;
12585;SDS011;6358;50.760;0.282;2022-10-16T00:39:16;3.50;;;1.35;;
12585;SDS011;6358;50.760;0.282;2022-10-16T00:41:42;2.67;;;1.40;;
12585;SDS011;6358;50.760;0.282;2022-10-16T00:46:53;3.50;;;1.67;;
12585;SDS011;6358;50.760;0.282;2022-10-16T00:49:19;1.98;;;1.15;;
12585;SDS011;6358;50.760;0.282;2022-10-16T00:51:46;2.57;;;1.30;;
12585;SDS011;6358;50.760;0.282;2022-10-16T00:54:14;3.40;;;1.40;;
12585;SDS011;6358;50.760;0.282;2022-10-16T00:56:42;2.60;;;1.10;;
12585;SDS011;6358;50.760;0.282;2022-10-16T00:59:16;2.20;;;1.27;;
12585;SDS011;6358;50.760;0.282;2022-10-16T01:01:42;2.17;;;1.10;;
12585;SDS011;6358;50.760;0.282;2022-10-16T01:04:08;2.80;;;1.30;;
12585;SDS011;6358;50.760;0.282;2022-10-16T01:11:34;1.70;;;1.08;;
12585;SDS011;6358;50.760;0.282;2022-10-16T01:14:11;3.33;;;1.30;;
12585;SDS011;6358;50.760;0.282;2022-10-16T01:16:40;3.43;;;1.40;;
12585;SDS011;6358;50.760;0.282;2022-10-16T01:19:14;2.67;;;1.07;;
12585;SDS011;6358;50.760;0.282;2022-10-16T01:21:43;3.30;;;1.30;;
12585;SDS011;6358;50.760;0.282;2022-10-16T01:32:16;2.55;;;1.40;;
12585;SDS011;6358;50.760;0.282;2022-10-16T01:34:47;1.98;;;1.20;;
12585;SDS011;6358;50.760;0.282;2022-10-16T01:37:15;2.50;;;1.20;;
12585;SDS011;6358;50.760;0.282;2022-10-16T01:39:42;2.40;;;1.23;;
12585;SDS011;6358;50.760;0.282;2022-10-16T01:42:13;2.57;;;1.20;;
12585;SDS011;6358;50.760;0.282;2022-10-16T01:44:41;3.42;;;1.42;;
12585;SDS011;6358;50.760;0.282;2022-10-16T01:47:08;4.13;;;1.75;;
12585;SDS011;6358;50.760;0.282;2022-10-16T01:49:36;4.00;;;1.63;;
12585;SDS011;6358;50.760;0.282;2022-10-16T01:52:04;2.13;;;1.13;;
12585;SDS011;6358;50.760;0.282;2022-10-16T01:54:31;3.23;;;1.27;;
12585;SDS011;6358;50.760;0.282;2022-10-16T01:56:59;2.63;;;1.37;;
12585;SDS011;6358;50.760;0.282;2022-10-16T01:59:25;2.87;;;1.40;;
12585;SDS011;6358;50.760;0.282;2022-10-16T02:01:54;3.40;;;1.40;;
12585;SDS011;6358;50.760;0.282;2022-10-16T02:04:23;1.83;;;1.20;;
12585;SDS011;6358;50.760;0.282;2022-10-16T02:06:50;2.60;;;1.20;;
12585;SDS011;6358;50.760;0.282;2022-10-16T02:09:16;2.73;;;1.33;;
12585;SDS011;6358;50.760;0.282;2022-10-16T02:11:43;3.17;;;1.33;;
12585;SDS011;6358;50.760;0.282;2022-10-16T02:14:09;1.87;;;1.13;;
12585;SDS011;6358;50.760;0.282;2022-10-16T02:16:42;4.20;;;1.37;;
12585;SDS011;6358;50.760;0.282;2022-10-16T02:19:09;3.53;;;1.47;;
12585;SDS011;6358;50.760;0.282;2022-10-16T02:21:56;3.60;;;1.50;;
12585;SDS011;6358;50.760;0.282;2022-10-16T02:29:55;2.73;;;1.37;;
12585;SDS011;6358;50.760;0.282;2022-10-16T02:32:24;2.07;;;1.13;;
12585;SDS011;6358;50.760;0.282;2022-10-16T02:34:52;3.20;;;1.10;;
12585;SDS011;6358;50.760;0.282;2022-10-16T02:37:18;2.17;;;1.03;;
12585;SDS011;6358;50.760;0.282;2022-10-16T02:39:45;4.10;;;1.38;;
12585;SDS011;6358;50.760;0.282;2022-10-16T02:42:11;3.90;;;1.47;;
12585;SDS011;6358;50.760;0.282;2022-10-16T02:44:38;3.53;;;1.70;;
12585;SDS011;6358;50.760;0.282;2022-10-16T02:47:04;3.17;;;1.47;;
12585;SDS011;6358;50.760;0.282;2022-10-16T02:49:30;4.53;;;1.73;;
12585;SDS011;6358;50.760;0.282;2022-10-16T02:51:56;1.70;;;1.23;;
12585;SDS011;6358;50.760;0.282;2022-10-16T02:54:22;3.40;;;1.60;;
12585;SDS011;6358;50.760;0.282;2022-10-16T02:56:48;3.87;;;1.40;;
12585;SDS011;6358;50.760;0.282;2022-10-16T02:59:15;5.07;;;1.52;;
12585;SDS011;6358;50.760;0.282;2022-10-16T03:01:41;3.13;;;1.45;;
12585;SDS011;6358;50.760;0.282;2022-10-16T03:04:07;2.97;;;1.37;;
12585;SDS011;6358;50.760;0.282;2022-10-16T03:06:34;2.40;;;1.70;;
12585;SDS011;6358;50.760;0.282;2022-10-16T03:09:00;3.63;;;1.60;;
12585;SDS011;6358;50.760;0.282;2022-10-16T03:11:26;3.00;;;1.55;;
12585;SDS011;6358;50.760;0.282;2022-10-16T03:13:53;3.43;;;1.27;;
12585;SDS011;6358;50.760;0.282;2022-10-16T03:16:19;2.33;;;1.40;;
12585;SDS011;6358;50.760;0.282;2022-10-16T03:18:48;3.57;;;1.70;;
12585;SDS011;6358;50.760;0.282;2022-10-16T03:21:15;4.57;;;1.43;;
12585;SDS011;6358;50.760;0.282;2022-10-16T03:23:41;3.23;;;1.33;;
12585;SDS011;6358;50.760;0.282;2022-10-16T03:26:07;2.20;;;1.23;;
12585;SDS011;6358;50.760;0.282;2022-10-16T03:28:33;2.67;;;1.33;;
12585;SDS011;6358;50.760;0.282;2022-10-16T03:31:00;3.17;;;1.50;;
12585;SDS011;6358;50.760;0.282;2022-10-16T03:33:26;2.20;;;1.20;;
12585;SDS011;6358;50.760;0.282;2022-10-16T03:35:53;3.70;;;1.50;;
12585;SDS011;6358;50.760;0.282;2022-10-16T03:38:19;2.40;;;1.10;;
12585;SDS011;6358;50.760;0.282;2022-10-16T03:40:46;2.87;;;1.23;;
12585;SDS011;6358;50.760;0.282;2022-10-16T03:43:12;4.33;;;1.47;;
12585;SDS011;6358;50.760;0.282;2022-10-16T03:45:38;2.63;;;1.27;;
12585;SDS011;6358;50.760;0.282;2022-10-16T03:48:04;4.33;;;1.57;;
12585;SDS011;6358;50.760;0.282;2022-10-16T03:50:31;4.30;;;1.60;;
12585;SDS011;6358;50.760;0.282;2022-10-16T03:52:57;2.17;;;1.50;;
12585;SDS011;6358;50.760;0.282;2022-10-16T03:55:23;3.03;;;1.30;;
12585;SDS011;6358;50.760;0.282;2022-10-16T03:57:49;2.57;;;1.40;;
12585;SDS011;6358;50.760;0.282;2022-10-16T04:00:15;3.17;;;1.40;;
12585;SDS011;6358;50.760;0.282;2022-10-16T04:02:42;3.63;;;1.57;;
12585;SDS011;6358;50.760;0.282;2022-10-16T04:05:08;3.37;;;1.40;;
12585;SDS011;6358;50.760;0.282;2022-10-16T04:07:34;2.17;;;1.37;;
12585;SDS011;6358;50.760;0.282;2022-10-16T04:10:00;3.53;;;1.60;;
12585;SDS011;6358;50.760;0.282;2022-10-16T04:12:27;3.63;;;1.50;;
12585;SDS011;6358;50.760;0.282;2022-10-16T04:14:53;3.17;;;1.30;;
12585;SDS011;6358;50.760;0.282;2022-10-16T04:17:19;2.23;;;1.40;;
12585;SDS011;6358;50.760;0.282;2022-10-16T04:19:45;3.70;;;1.60;;
12585;SDS011;6358;50.760;0.282;2022-10-16T04:22:11;2.80;;;1.33;;
12585;SDS011;6358;50.760;0.282;2022-10-16T04:24:37;3.13;;;1.30;;
12585;SDS011;6358;50.760;0.282;2022-10-16T04:27:03;1.83;;;1.13;;
12585;SDS011;6358;50.760;0.282;2022-10-16T04:29:29;3.53;;;1.50;;
12585;SDS011;6358;50.760;0.282;2022-10-16T04:31:55;2.87;;;1.43;;
12585;SDS011;6358;50.760;0.282;2022-10-16T04:34:21;3.93;;;1.60;;
12585;SDS011;6358;50.760;0.282;2022-10-16T04:36:48;3.30;;;1.63;;
12585;SDS011;6358;50.760;0.282;2022-10-16T04:39:14;4.03;;;1.40;;
12585;SDS011;6358;50.760;0.282;2022-10-16T04:41:40;3.30;;;1.53;;
12585;SDS011;6358;50.760;0.282;2022-10-16T04:44:06;3.17;;;1.27;;
12585;SDS011;6358;50.760;0.282;2022-10-16T04:46:33;3.03;;;1.40;;
12585;SDS011;6358;50.760;0.282;2022-10-16T04:48:59;6.03;;;1.70;;
12585;SDS011;6358;50.760;0.282;2022-10-16T04:51:25;3.73;;;1.50;;
12585;SDS011;6358;50.760;0.282;2022-10-16T04:53:52;3.40;;;1.50;;
12585;SDS011;6358;50.760;0.282;2022-10-16T04:56:19;3.30;;;1.20;;
12585;SDS011;6358;50.760;0.282;2022-10-16T04:58:46;2.90;;;1.30;;
12585;SDS011;6358;50.760;0.282;2022-10-16T05:01:12;1.88;;;1.38;;
12585;SDS011;6358;50.760;0.282;2022-10-16T05:03:39;2.70;;;1.30;;
12585;SDS011;6358;50.760;0.282;2022-10-16T05:06:05;2.93;;;1.20;;
12585;SDS011;6358;50.760;0.282;2022-10-16T05:08:31;2.67;;;1.30;;
12585;SDS011;6358;50.760;0.282;2022-10-16T05:10:57;2.37;;;1.23;;
12585;SDS011;6358;50.760;0.282;2022-10-16T05:13:23;2.30;;;1.23;;
12585;SDS011;6358;50.760;0.282;2022-10-16T05:15:49;3.27;;;1.33;;
12585;SDS011;6358;50.760;0.282;2022-10-16T05:18:16;3.83;;;1.40;;
12585;SDS011;6358;50.760;0.282;2022-10-16T05:20:42;2.83;;;1.37;;
12585;SDS011;6358;50.760;0.282;2022-10-16T05:23:09;2.47;;;1.27;;
12585;SDS011;6358;50.760;0.282;2022-10-16T05:25:36;2.97;;;1.37;;
12585;SDS011;6358;50.760;0.282;2022-10-16T05:28:02;3.93;;;1.40;;
12585;SDS011;6358;50.760;0.282;2022-10-16T05:30:28;4.17;;;1.40;;
12585;SDS011;6358;50.760;0.282;2022-10-16T05:32:54;3.07;;;1.40;;
12585;SDS011;6358;50.760;0.282;2022-10-16T05:35:20;2.80;;;1.10;;
12585;SDS011;6358;50.760;0.282;2022-10-16T05:37:47;4.20;;;1.43;;
12585;SDS011;6358;50.760;0.282;2022-10-16T05:40:13;3.03;;;1.50;;
12585;SDS011;6358;50.760;0.282;2022-10-16T05:42:40;2.23;;;1.20;;
12585;SDS011;6358;50.760;0.282;2022-10-16T05:45:06;2.67;;;1.13;;
12585;SDS011;6358;50.760;0.282;2022-10-16T05:47:32;2.57;;;1.30;;
12585;SDS011;6358;50.760;0.282;2022-10-16T05:49:58;3.93;;;1.67;;
12585;SDS011;6358;50.760;0.282;2022-10-16T05:52:24;2.97;;;1.20;;
12585;SDS011;6358;50.760;0.282;2022-10-16T05:54:50;2.67;;;1.43;;
12585;SDS011;6358;50.760;0.282;2022-10-16T05:57:17;2.37;;;1.20;;
12585;SDS011;6358;50.760;0.282;2022-10-16T05:59:43;2.70;;;1.30;;
12585;SDS011;6358;50.760;0.282;2022-10-16T06:02:15;2.63;;;1.33;;
12585;SDS011;6358;50.760;0.282;2022-10-16T06:04:41;2.97;;;1.37;;
12585;SDS011;6358;50.760;0.282;2022-10-16T06:07:07;3.17;;;1.50;;
12585;SDS011;6358;50.760;0.282;2022-10-16T06:09:33;2.67;;;1.40;;
12585;SDS011;6358;50.760;0.282;2022-10-16T06:11:59;2.93;;;1.40;;
12585;SDS011;6358;50.760;0.282;2022-10-16T06:14:25;2.70;;;1.20;;
12585;SDS011;6358;50.760;0.282;2022-10-16T06:16:52;2.97;;;1.40;;
12585;SDS011;6358;50.760;0.282;2022-10-16T06:19:18;2.27;;;1.40;;
12585;SDS011;6358;50.760;0.282;2022-10-16T06:21:44;2.40;;;1.17;;
12585;SDS011;6358;50.760;0.282;2022-10-16T06:24:10;3.23;;;1.17;;
12585;SDS011;6358;50.760;0.282;2022-10-16T06:26:37;2.27;;;1.20;;
12585;SDS011;6358;50.760;0.282;2022-10-16T06:29:03;3.40;;;1.43;;
12585;SDS011;6358;50.760;0.282;2022-10-16T06:31:30;3.23;;;1.47;;
12585;SDS011;6358;50.760;0.282;2022-10-16T06:33:58;2.03;;;1.00;;
12585;SDS011;6358;50.760;0.282;2022-10-16T06:36:24;2.53;;;1.40;;
12585;SDS011;6358;50.760;0.282;2022-10-16T06:38:51;3.20;;;1.30;;
12585;SDS011;6358;50.760;0.282;2022-10-16T06:41:17;2.33;;;0.97;;
12585;SDS011;6358;50.760;0.282;2022-10-16T06:43:44;2.73;;;1.37;;
12585;SDS011;6358;50.760;0.282;2022-10-16T06:46:11;2.33;;;1.23;;
12585;SDS011;6358;50.760;0.282;2022-10-16T06:48:37;2.57;;;1.17;;
12585;SDS011;6358;50.760;0.282;2022-10-16T06:51:04;2.73;;;1.23;;
12585;SDS011;6358;50.760;0.282;2022-10-16T06:53:32;3.73;;;1.30;;
12585;SDS011;6358;50.760;0.282;2022-10-16T06:56:06;2.83;;;1.20;;
12585;SDS011;6358;50.760;0.282;2022-10-16T06:58:32;2.57;;;1.20;;
12585;SDS011;6358;50.760;0.282;2022-10-16T07:00:58;3.23;;;1.20;;
12585;SDS011;6358;50.760;0.282;2022-10-16T07:03:24;2.63;;;1.30;;
12585;SDS011;6358;50.760;0.282;2022-10-16T07:05:50;9.53;;;1.43;;
12585;SDS011;6358;50.760;0.282;2022-10-16T07:08:16;4.00;;;1.33;;
12585;SDS011;6358;50.760;0.282;2022-10-16T07:10:42;2.42;;;1.10;;
12585;SDS011;6358;50.760;0.282;2022-10-16T07:13:08;5.00;;;1.52;;
12585;SDS011;6358;50.760;0.282;2022-10-16T07:15:38;3.67;;;1.57;;
12585;SDS011;6358;50.760;0.282;2022-10-16T07:18:04;2.23;;;1.20;;
12585;SDS011;6358;50.760;0.282;2022-10-16T07:20:30;2.33;;;1.20;;
12585;SDS011;6358;50.760;0.282;2022-10-16T07:22:56;2.63;;;1.33;;
12585;SDS011;6358;50.760;0.282;2022-10-16T07:25:22;3.47;;;1.40;;
12585;SDS011;6358;50.760;0.282;2022-10-16T07:27:48;3.63;;;1.17;;
12585;SDS011;6358;50.760;0.282;2022-10-16T07:30:14;3.23;;;1.40;;
12585;SDS011;6358;50.760;0.282;2022-10-16T07:32:40;3.30;;;1.30;;
12585;SDS011;6358;50.760;0.282;2022-10-16T07:35:06;15.67;;;12.93;;
12585;SDS011;6358;50.760;0.282;2022-10-16T07:37:33;26.83;;;23.73;;
12585;SDS011;6358;50.760;0.282;2022-10-16T07:39:59;72.30;;;64.60;;
12585;SDS011;6358;50.760;0.282;2022-10-16T07:42:26;123.37;;;110.33;;
12585;SDS011;6358;50.760;0.282;2022-10-16T07:44:53;164.13;;;146.73;;
12585;SDS011;6358;50.760;0.282;2022-10-16T07:47:19;172.93;;;154.77;;
12585;SDS011;6358;50.760;0.282;2022-10-16T07:49:45;155.50;;;139.30;;
12585;SDS011;6358;50.760;0.282;2022-10-16T07:52:11;162.50;;;145.73;;
12585;SDS011;6358;50.760;0.282;2022-10-16T07:54:37;166.57;;;149.17;;
12585;SDS011;6358;50.760;0.282;2022-10-16T07:57:03;181.60;;;162.53;;
12585;SDS011;6358;50.760;0.282;2022-10-16T07:59:30;182.27;;;162.98;;
12585;SDS011;6358;50.760;0.282;2022-10-16T08:01:56;189.47;;;169.67;;
12585;SDS011;6358;50.760;0.282;2022-10-16T08:04:22;201.37;;;180.43;;
12585;SDS011;6358;50.760;0.282;2022-10-16T08:06:48;198.10;;;177.40;;
12585;SDS011;6358;50.760;0.282;2022-10-16T08:09:14;192.03;;;172.07;;
12585;SDS011;6358;50.760;0.282;2022-10-16T08:11:40;205.73;;;184.13;;
12585;SDS011;6358;50.760;0.282;2022-10-16T08:14:07;201.70;;;180.73;;
12585;SDS011;6358;50.760;0.282;2022-10-16T08:16:33;207.50;;;185.57;;
12585;SDS011;6358;50.760;0.282;2022-10-16T08:18:59;203.05;;;181.90;;
12585;SDS011;6358;50.760;0.282;2022-10-16T08:21:25;203.02;;;181.68;;
12585;SDS011;6358;50.760;0.282;2022-10-16T08:23:52;198.50;;;178.85;;
12585;SDS011;6358;50.760;0.282;2022-10-16T08:26:19;197.03;;;176.77;;
12585;SDS011;6358;50.760;0.282;2022-10-16T08:28:46;197.63;;;177.25;;
12585;SDS011;6358;50.760;0.282;2022-10-16T08:31:15;195.37;;;174.93;;
12585;SDS011;6358;50.760;0.282;2022-10-16T08:33:43;190.30;;;170.33;;
12585;SDS011;6358;50.760;0.282;2022-10-16T08:36:10;188.18;;;169.07;;
12585;SDS011;6358;50.760;0.282;2022-10-16T08:38:37;185.77;;;166.67;;
12585;SDS011;6358;50.760;0.282;2022-10-16T08:43:43;177.33;;;158.80;;
12585;SDS011;6358;50.760;0.282;2022-10-16T08:48:46;171.48;;;153.30;;
12585;SDS011;6358;50.760;0.282;2022-10-16T08:51:31;171.60;;;153.37;;
12585;SDS011;6358;50.760;0.282;2022-10-16T08:53:59;165.23;;;148.60;;
12585;SDS011;6358;50.760;0.282;2022-10-16T08:56:27;161.87;;;145.33;;
12585;SDS011;6358;50.760;0.282;2022-10-16T08:58:53;158.95;;;142.30;;
12585;SDS011;6358;50.760;0.282;2022-10-16T09:01:21;157.77;;;141.50;;
12585;SDS011;6358;50.760;0.282;2022-10-16T09:17:23;139.80;;;125.43;;
12585;SDS011;6358;50.760;0.282;2022-10-16T09:19:53;137.10;;;123.07;;
12585;SDS011;6358;50.760;0.282;2022-10-16T09:22:23;132.90;;;119.20;;
12585;SDS011;6358;50.760;0.282;2022-10-16T09:24:50;128.27;;;115.13;;
12585;SDS011;6358;50.760;0.282;2022-10-16T09:27:16;124.82;;;111.57;;
12585;SDS011;6358;50.760;0.282;2022-10-16T09:29:42;120.97;;;108.37;;
12585;SDS011;6358;50.760;0.282;2022-10-16T09:32:15;118.70;;;106.47;;
12585;SDS011;6358;50.760;0.282;2022-10-16T09:34:52;117.95;;;106.10;;
12585;SDS011;6358;50.760;0.282;2022-10-16T09:37:21;118.13;;;106.07;;
12585;SDS011;6358;50.760;0.282;2022-10-16T09:39:49;114.57;;;103.03;;
12585;SDS011;6358;50.760;0.282;2022-10-16T09:42:18;108.90;;;97.40;;
12585;SDS011;6358;50.760;0.282;2022-10-16T09:44:49;107.90;;;96.60;;
12585;SDS011;6358;50.760;0.282;2022-10-16T09:47:20;108.63;;;97.47;;
12585;SDS011;6358;50.760;0.282;2022-10-16T09:49:54;101.72;;;91.47;;
12585;SDS011;6358;50.760;0.282;2022-10-16T09:52:22;97.50;;;87.47;;
12585;SDS011;6358;50.760;0.282;2022-10-16T09:54:55;98.23;;;87.83;;
12585;SDS011;6358;50.760;0.282;2022-10-16T09:57:22;96.72;;;86.72;;
12585;SDS011;6358;50.760;0.282;2022-10-16T09:59:49;96.17;;;86.37;;
12585;SDS011;6358;50.760;0.282;2022-10-16T10:02:17;95.60;;;85.43;;
12585;SDS011;6358;50.760;0.282;2022-10-16T10:04:50;90.07;;;80.80;;
12585;SDS011;6358;50.760;0.282;2022-10-16T10:07:30;86.37;;;77.17;;
12585;SDS011;6358;50.760;0.282;2022-10-16T10:09:59;86.13;;;77.03;;
12585;SDS011;6358;50.760;0.282;2022-10-16T10:12:25;83.20;;;74.18;;
12585;SDS011;6358;50.760;0.282;2022-10-16T10:14:53;82.28;;;73.43;;
12585;SDS011;6358;50.760;0.282;2022-10-16T10:17:21;81.05;;;72.47;;
12585;SDS011;6358;50.760;0.282;2022-10-16T10:19:52;75.77;;;67.83;;
12585;SDS011;6358;50.760;0.282;2022-10-16T10:22:21;73.83;;;65.70;;
12585;SDS011;6358;50.760;0.282;2022-10-16T10:24:59;74.50;;;66.63;;
12585;SDS011;6358;50.760;0.282;2022-10-16T10:27:29;70.97;;;63.30;;
12585;SDS011;6358;50.760;0.282;2022-10-16T10:30:00;70.17;;;62.57;;
12585;SDS011;6358;50.760;0.282;2022-10-16T10:32:39;66.77;;;59.87;;
12585;SDS011;6358;50.760;0.282;2022-10-16T10:35:16;64.47;;;57.42;;
12585;SDS011;6358;50.760;0.282;2022-10-16T10:43:30;62.57;;;54.30;;
12585;SDS011;6358;50.760;0.282;2022-10-16T10:46:04;61.60;;;54.90;;
12585;SDS011;6358;50.760;0.282;2022-10-16T10:53:40;57.07;;;51.10;;
12585;SDS011;6358;50.760;0.282;2022-10-16T10:56:14;56.07;;;50.23;;
12585;SDS011;6358;50.760;0.282;2022-10-16T11:01:14;51.20;;;45.87;;
12585;SDS011;6358;50.760;0.282;2022-10-16T11:11:16;45.95;;;41.20;;
12585;SDS011;6358;50.760;0.282;2022-10-16T11:16:31;43.90;;;39.42;;
12585;SDS011;6358;50.760;0.282;2022-10-16T11:21:21;41.80;;;37.55;;
12585;SDS011;6358;50.760;0.282;2022-10-16T11:23:51;40.63;;;36.42;;
12585;SDS011;6358;50.760;0.282;2022-10-16T11:26:21;40.33;;;36.10;;
12585;SDS011;6358;50.760;0.282;2022-10-16T11:28:49;39.30;;;35.25;;
12585;SDS011;6358;50.760;0.282;2022-10-16T11:31:22;37.58;;;33.58;;
12585;SDS011;6358;50.760;0.282;2022-10-16T11:36:51;36.37;;;32.77;;
12585;SDS011;6358;50.760;0.282;2022-10-16T11:39:20;35.53;;;31.92;;
12585;SDS011;6358;50.760;0.282;2022-10-16T11:46:53;32.90;;;29.52;;
12585;SDS011;6358;50.760;0.282;2022-10-16T11:49:22;32.63;;;29.23;;
12585;SDS011;6358;50.760;0.282;2022-10-16T11:51:55;32.40;;;29.10;;
12585;SDS011;6358;50.760;0.282;2022-10-16T11:56:52;29.53;;;26.57;;
12585;SDS011;6358;50.760;0.282;2022-10-16T11:59:32;29.83;;;26.63;;
12585;SDS011;6358;50.760;0.282;2022-10-16T12:04:47;29.00;;;26.03;;
12585;SDS011;6358;50.760;0.282;2022-10-16T12:07:16;28.40;;;25.40;;
12585;SDS011;6358;50.760;0.282;2022-10-16T12:09:44;29.45;;;25.52;;
12585;SDS011;6358;50.760;0.282;2022-10-16T12:15:01;26.60;;;23.93;;
12585;SDS011;6358;50.760;0.282;2022-10-16T12:17:35;26.00;;;23.40;;
12585;SDS011;6358;50.760;0.282;2022-10-16T12:22:41;26.48;;;23.55;;
12585;SDS011;6358;50.760;0.282;2022-10-16T12:25:23;25.00;;;22.30;;
12585;SDS011;6358;50.760;0.282;2022-10-16T12:27:53;26.30;;;23.00;;
12585;SDS011;6358;50.760;0.282;2022-10-16T12:30:22;24.98;;;22.30;;
12585;SDS011;6358;50.760;0.282;2022-10-16T12:32:58;22.30;;;20.00;;
12585;SDS011;6358;50.760;0.282;2022-10-16T12:35:27;22.48;;;20.17;;
12585;SDS011;6358;50.760;0.282;2022-10-16T12:37:54;22.75;;;20.35;;
12585;SDS011;6358;50.760;0.282;2022-10-16T12:40:31;22.67;;;20.17;;
12585;SDS011;6358;50.760;0.282;2022-10-16T12:42:58;21.60;;;19.30;;
12585;SDS011;6358;50.760;0.282;2022-10-16T12:45:29;21.75;;;19.25;;
12585;SDS011;6358;50.760;0.282;2022-10-16T12:47:56;22.37;;;19.43;;
12585;SDS011;6358;50.760;0.282;2022-10-16T12:50:24;20.57;;;18.47;;
12585;SDS011;6358;50.760;0.282;2022-10-16T12:52:51;21.00;;;18.70;;
12585;SDS011;6358;50.760;0.282;2022-10-16T12:55:18;20.40;;;18.30;;
12585;SDS011;6358;50.760;0.282;2022-10-16T12:57:50;20.50;;;18.30;;
12585;SDS011;6358;50.760;0.282;2022-10-16T13:18:55;25.17;;;19.83;;
12585;SDS011;6358;50.760;0.282;2022-10-16T13:21:33;23.67;;;19.17;;
12585;SDS011;6358;50.760;0.282;2022-10-16T13:27:02;27.10;;;18.93;;
12585;SDS011;6358;50.760;0.282;2022-10-16T13:29:32;24.60;;;19.27;;
12585;SDS011;6358;50.760;0.282;2022-10-16T13:31:59;22.13;;;19.00;;
12585;SDS011;6358;50.760;0.282;2022-10-16T13:34:26;24.93;;;19.53;;
12585;SDS011;6358;50.760;0.282;2022-10-16T13:36:53;22.60;;;19.57;;
12585;SDS011;6358;50.760;0.282;2022-10-16T13:39:26;25.10;;;18.97;;
12585;SDS011;6358;50.760;0.282;2022-10-16T13:44:35;23.30;;;18.10;;
12585;SDS011;6358;50.760;0.282;2022-10-16T13:47:02;22.83;;;16.87;;
12585;SDS011;6358;50.760;0.282;2022-10-16T13:49:28;21.17;;;17.10;;
12585;SDS011;6358;50.760;0.282;2022-10-16T13:51:55;19.08;;;16.35;;
12585;SDS011;6358;50.760;0.282;2022-10-16T13:54:22;20.02;;;16.27;;
12585;SDS011;6358;50.760;0.282;2022-10-16T13:56:48;22.73;;;15.25;;
12585;SDS011;6358;50.760;0.282;2022-10-16T13:59:24;17.88;;;14.75;;
12585;SDS011;6358;50.760;0.282;2022-10-16T14:01:52;17.40;;;14.50;;
12585;SDS011;6358;50.760;0.282;2022-10-16T14:04:19;18.97;;;14.80;;
12585;SDS011;6358;50.760;0.282;2022-10-16T14:06:46;20.08;;;13.93;;
12585;SDS011;6358;50.760;0.282;2022-10-16T14:09:27;19.73;;;14.23;;
12585;SDS011;6358;50.760;0.282;2022-10-16T14:14:20;17.10;;;13.63;;
12585;SDS011;6358;50.760;0.282;2022-10-16T14:16:47;15.40;;;13.10;;
12585;SDS011;6358;50.760;0.282;2022-10-16T14:19:34;17.40;;;13.10;;
12585;SDS011;6358;50.760;0.282;2022-10-16T14:22:00;15.50;;;13.53;;
12585;SDS011;6358;50.760;0.282;2022-10-16T14:26:56;14.53;;;11.97;;
12585;SDS011;6358;50.760;0.282;2022-10-16T14:29:23;14.03;;;12.10;;
12585;SDS011;6358;50.760;0.282;2022-10-16T14:32:03;15.15;;;12.18;;
12585;SDS011;6358;50.760;0.282;2022-10-16T14:34:30;15.57;;;11.83;;
12585;SDS011;6358;50.760;0.282;2022-10-16T14:36:58;15.43;;;12.07;;
12585;SDS011;6358;50.760;0.282;2022-10-16T14:39:27;12.00;;;10.57;;
12585;SDS011;6358;50.760;0.282;2022-10-16T14:41:55;13.93;;;11.53;;
12585;SDS011;6358;50.760;0.282;2022-10-16T14:44:22;14.53;;;11.47;;
12585;SDS011;6358;50.760;0.282;2022-10-16T14:46:52;12.90;;;10.57;;
12585;SDS011;6358;50.760;0.282;2022-10-16T14:49:18;18.10;;;11.68;;
12585;SDS011;6358;50.760;0.282;2022-10-16T14:51:45;13.90;;;11.03;;
12585;SDS011;6358;50.760;0.282;2022-10-16T14:54:13;13.23;;;10.43;;
12585;SDS011;6358;50.760;0.282;2022-10-16T14:56:44;11.77;;;9.90;;
12585;SDS011;6358;50.760;0.282;2022-10-16T14:59:19;14.40;;;11.17;;
12585;SDS011;6358;50.760;0.282;2022-10-16T15:01:47;11.67;;;9.90;;
12585;SDS011;6358;50.760;0.282;2022-10-16T15:04:14;11.33;;;9.77;;
12585;SDS011;6358;50.760;0.282;2022-10-16T15:06:40;10.53;;;8.93;;
12585;SDS011;6358;50.760;0.282;2022-10-16T15:09:06;13.30;;;9.23;;
12585;SDS011;6358;50.760;0.282;2022-10-16T15:11:32;11.93;;;9.48;;
12585;SDS011;6358;50.760;0.282;2022-10-16T15:13:59;10.80;;;9.02;;
12585;SDS011;6358;50.760;0.282;2022-10-16T15:16:25;10.43;;;8.87;;
12585;SDS011;6358;50.760;0.282;2022-10-16T15:18:51;10.67;;;8.53;;
12585;SDS011;6358;50.760;0.282;2022-10-16T15:21:24;10.43;;;7.97;;
12585;SDS011;6358;50.760;0.282;2022-10-16T15:23:51;9.45;;;7.88;;
12585;SDS011;6358;50.760;0.282;2022-10-16T15:26:17;9.88;;;8.48;;
12585;SDS011;6358;50.760;0.282;2022-10-16T15:28:43;10.33;;;7.90;;
12585;SDS011;6358;50.760;0.282;2022-10-16T15:31:09;9.90;;;7.87;;
12585;SDS011;6358;50.760;0.282;2022-10-16T15:33:35;9.85;;;7.68;;
12585;SDS011;6358;50.760;0.282;2022-10-16T15:36:02;9.50;;;7.87;;
12585;SDS011;6358;50.760;0.282;2022-10-16T15:38:28;9.43;;;7.50;;
12585;SDS011;6358;50.760;0.282;2022-10-16T15:40:55;8.07;;;7.17;;
12585;SDS011;6358;50.760;0.282;2022-10-16T15:43:21;8.30;;;7.10;;
12585;SDS011;6358;50.760;0.282;2022-10-16T15:46:00;7.90;;;7.10;;
12585;SDS011;6358;50.760;0.282;2022-10-16T15:48:27;9.60;;;7.07;;
12585;SDS011;6358;50.760;0.282;2022-10-16T15:50:54;9.03;;;7.27;;
12585;SDS011;6358;50.760;0.282;2022-10-16T15:53:20;7.77;;;6.93;;
12585;SDS011;6358;50.760;0.282;2022-10-16T15:55:46;7.50;;;6.70;;
12585;SDS011;6358;50.760;0.282;2022-10-16T15:58:12;6.82;;;5.82;;
12585;SDS011;6358;50.760;0.282;2022-10-16T16:00:38;8.57;;;6.30;;
12585;SDS011;6358;50.760;0.282;2022-10-16T16:03:04;8.97;;;6.20;;
12585;SDS011;6358;50.760;0.282;2022-10-16T16:05:30;7.07;;;5.90;;
12585;SDS011;6358;50.760;0.282;2022-10-16T16:07:58;7.63;;;5.90;;
12585;SDS011;6358;50.760;0.282;2022-10-16T16:10:24;8.63;;;6.40;;
12585;SDS011;6358;50.760;0.282;2022-10-16T16:12:50;8.10;;;6.40;;
12585;SDS011;6358;50.760;0.282;2022-10-16T16:15:18;6.70;;;5.20;;
12585;SDS011;6358;50.760;0.282;2022-10-16T16:17:44;7.13;;;5.60;;
12585;SDS011;6358;50.760;0.282;2022-10-16T16:20:11;6.57;;;5.40;;
12585;SDS011;6358;50.760;0.282;2022-10-16T16:22:37;6.87;;;5.57;;
12585;SDS011;6358;50.760;0.282;2022-10-16T16:25:03;6.50;;;5.50;;
12585;SDS011;6358;50.760;0.282;2022-10-16T16:27:29;6.33;;;5.03;;
12585;SDS011;6358;50.760;0.282;2022-10-16T16:29:58;6.57;;;5.27;;
12585;SDS011;6358;50.760;0.282;2022-10-16T16:32:24;7.80;;;5.78;;
12585;SDS011;6358;50.760;0.282;2022-10-16T16:34:50;6.88;;;5.10;;
12585;SDS011;6358;50.760;0.282;2022-10-16T16:37:17;6.37;;;4.67;;
12585;SDS011;6358;50.760;0.282;2022-10-16T16:39:43;5.85;;;4.80;;
12585;SDS011;6358;50.760;0.282;2022-10-16T16:42:09;6.90;;;5.30;;
12585;SDS011;6358;50.760;0.282;2022-10-16T16:44:35;7.15;;;5.03;;